createdAt,value
2022-10-12T00:06:51.827Z,12.9
2022-10-12T00:12:04.783Z,13
2022-10-12T00:17:16.356Z,12.9
2022-10-12T00:22:28.638Z,12.9
2022-10-12T00:27:44.703Z,12.8
2022-10-12T00:32:57.232Z,12.7
2022-10-12T00:38:13.783Z,12.7
2022-10-12T00:43:26.381Z,12.6
2022-10-12T00:48:41.842Z,12.6
2022-10-12T00:53:54.491Z,12.7
2022-10-12T00:59:06.455Z,12.8
2022-10-12T01:04:17.337Z,12.9
2022-10-12T01:09:29.330Z,12.9
2022-10-12T01:14:42.487Z,12.7
2022-10-12T01:19:57.590Z,12.7
2022-10-12T01:25:06.349Z,12.8
2022-10-12T01:30:18.299Z,12.7
2022-10-12T01:46:13.202Z,12.9
2022-10-12T01:51:27.955Z,12.9
2022-10-12T01:56:40.223Z,13.1
2022-10-12T02:01:55.686Z,13.1
2022-10-12T02:07:08.210Z,13.1
2022-10-12T02:12:24.120Z,13.1
2022-10-12T02:22:58.503Z,12.8
2022-10-12T02:28:09.246Z,12.6
2022-10-12T02:38:45.320Z,12.6
2022-10-12T02:43:55.216Z,12.5
2022-10-12T02:49:07.550Z,12.6
2022-10-12T02:54:19.468Z,12.7
2022-10-12T02:59:31.966Z,12.8
2022-10-12T03:10:05.598Z,12.8
2022-10-12T03:26:01.939Z,12.8
2022-10-12T03:41:58.653Z,12.8
2022-10-12T03:47:10.357Z,12.9
2022-10-12T03:52:22.702Z,12.9
2022-10-12T04:02:55.993Z,12.9
2022-10-12T04:13:29.527Z,12.6
2022-10-12T04:18:42.089Z,12.5
2022-10-12T04:23:53.815Z,12.3
2022-10-12T04:29:06.320Z,12.3
2022-10-12T04:34:19.263Z,12.3
2022-10-12T04:44:59.887Z,12.3
2022-10-12T04:55:33.705Z,12.2
2022-10-12T05:06:07.001Z,12.2
2022-10-12T05:11:18.107Z,12.1
2022-10-12T05:16:30.402Z,12.1
2022-10-12T05:21:42.386Z,12.1
2022-10-12T05:32:16.588Z,11.9
2022-10-12T05:37:28.796Z,12
2022-10-12T05:48:02.183Z,12.1
2022-10-12T05:58:40.548Z,12.1
2022-10-12T06:03:53.582Z,12.2
2022-10-12T06:09:07.861Z,12.2
2022-10-12T06:14:21.356Z,12.3
2022-10-12T06:19:38.301Z,12.3
2022-10-12T06:24:54.404Z,12.3
2022-10-12T06:30:09.847Z,12.3
2022-10-12T06:40:44.244Z,12.3
2022-10-12T06:46:00.325Z,12.3
2022-10-12T06:51:11.094Z,12.4
2022-10-12T06:56:26.826Z,12.4
2022-10-12T07:01:43.783Z,12.4
2022-10-12T07:06:56.516Z,12.4
2022-10-12T07:17:29.358Z,12.4
2022-10-12T07:22:41.677Z,12.5
2022-10-12T07:27:54.267Z,12.5
2022-10-12T07:33:06.291Z,12.6
2022-10-12T07:38:16.816Z,12.5
2022-10-12T07:43:28.926Z,12.5
2022-10-12T07:48:50.597Z,12.7
2022-10-12T07:53:53.039Z,12.8
2022-10-12T07:59:05.160Z,12.9
2022-10-12T08:04:17.363Z,12.9
2022-10-12T08:09:30.187Z,13.1
2022-10-12T08:14:40.858Z,13
2022-10-12T08:19:53.070Z,13.1
2022-10-12T08:30:39.527Z,13.1
2022-10-12T08:35:43.732Z,13.4
2022-10-12T08:46:16.035Z,13.4
2022-10-12T08:51:33.173Z,13.4
2022-10-12T08:56:49.515Z,13.4
2022-10-12T09:02:06.603Z,13.4
2022-10-12T09:07:18.419Z,13.8
2022-10-12T09:17:50.751Z,13.9
2022-10-12T09:23:07.866Z,13.9
2022-10-12T09:28:21.085Z,14
2022-10-12T09:33:36.589Z,14
2022-10-12T09:38:52.061Z,14
2022-10-12T09:49:25.352Z,14.1
2022-10-12T09:54:37.796Z,14.2
2022-10-12T09:59:54.177Z,14.2
2022-10-12T10:05:06.805Z,14.4
2022-10-12T10:10:31.762Z,14.4
2022-10-12T10:15:39.791Z,14.4
2022-10-12T10:26:13.019Z,14.8
2022-10-12T10:36:46.375Z,15.1
2022-10-12T10:52:45.699Z,15.1
2022-10-12T10:57:57.384Z,15.3
2022-10-12T11:19:14.251Z,16.2
2022-10-12T11:24:32.440Z,17.6
2022-10-12T11:35:09.527Z,17.6
2022-10-12T11:41:09.642Z,20
2022-10-12T11:51:10.682Z,20
2022-10-12T11:56:21.409Z,21.4
2022-10-12T12:01:40.718Z,21.4
2022-10-12T12:12:26.044Z,24.1
2022-10-12T12:23:04.768Z,24.1
2022-10-12T12:28:24.200Z,24.1
2022-10-12T12:33:52.165Z,24.1
2022-10-12T12:38:59.744Z,24.4
2022-10-12T12:59:49.914Z,24.4
2022-10-12T13:04:56.399Z,26.5
2022-10-12T13:15:32.518Z,26.9
2022-10-12T13:26:05.936Z,27.2
2022-10-12T13:31:14.769Z,27.1
2022-10-12T13:36:25.093Z,25.6
2022-10-12T13:41:34.439Z,24.8
2022-10-12T13:46:47.854Z,25.1
2022-10-12T13:52:04.375Z,25.7
2022-10-12T13:57:22.402Z,26.1
2022-10-12T14:02:32.787Z,25.8
2022-10-12T14:07:46.107Z,25.9
2022-10-12T14:13:10.025Z,26.1
2022-10-12T14:18:25.146Z,26.1
2022-10-12T14:23:37.487Z,26.1
2022-10-12T14:28:50.138Z,25.7
2022-10-12T14:39:38.656Z,25.7
2022-10-12T14:44:50.131Z,25.2
2022-10-12T14:50:11.244Z,25.2
2022-10-12T15:00:47.210Z,24.4
2022-10-12T15:11:18.695Z,24.4
2022-10-12T15:16:31.503Z,23.2
2022-10-12T15:32:24.529Z,21.4
2022-10-12T15:42:55.925Z,19.9
2022-10-12T15:53:28.708Z,18.9
2022-10-12T16:04:03.558Z,18.9
2022-10-12T16:09:15.385Z,17.8
2022-10-12T16:14:26.271Z,17.6
2022-10-12T16:19:41.280Z,17.6
2022-10-12T16:24:54.030Z,17.3
2022-10-12T16:30:08.274Z,17.3
2022-10-12T16:35:23.936Z,17.3
2022-10-12T16:45:57.406Z,16.8
2022-10-12T16:51:12.982Z,16.8
2022-10-12T16:56:30.300Z,16.8
2022-10-12T17:01:42.361Z,16.6
2022-10-12T17:06:56.413Z,16.6
2022-10-12T17:22:52.277Z,16.2
2022-10-12T17:28:05.749Z,16.2
2022-10-12T17:33:21.488Z,16.2
2022-10-12T17:38:37.156Z,16.2
2022-10-12T17:43:48.319Z,15.8
2022-10-12T17:49:05.435Z,15.8
2022-10-12T17:54:21.475Z,15.8
2022-10-12T18:04:55.344Z,15.5
2022-10-12T18:15:31.693Z,15.5
2022-10-12T18:20:50.163Z,15.5
2022-10-12T18:25:59.849Z,15.3
2022-10-12T18:31:16.620Z,15.2
2022-10-12T18:47:08.128Z,15.2
2022-10-12T18:57:45.335Z,14.9
2022-10-12T19:03:03.162Z,14.9
2022-10-12T19:08:13.658Z,14.4
2022-10-12T19:24:09.791Z,13
2022-10-12T19:29:21.398Z,12.5
2022-10-12T19:34:32.911Z,12.4
2022-10-12T19:39:45.558Z,12.7
2022-10-12T19:44:58.801Z,13
2022-10-12T19:50:09.951Z,12.7
2022-10-12T19:55:22.721Z,13
2022-10-12T20:00:35.250Z,12.7
2022-10-12T20:05:51.247Z,11.9
2022-10-12T20:10:57.870Z,11.8
2022-10-12T20:16:09.598Z,11.8
2022-10-12T20:21:23.825Z,11.8
2022-10-12T20:26:32.581Z,12.2
2022-10-12T20:31:44.110Z,12.8
2022-10-12T20:36:55.089Z,12.5
2022-10-12T20:42:11.617Z,12.5
2022-10-12T20:47:21.775Z,12.9
2022-10-12T20:58:00.890Z,12.9
2022-10-12T21:03:13.959Z,13.3
2022-10-12T21:08:27.520Z,13.5
2022-10-12T21:13:38.819Z,13.3
2022-10-12T21:18:55.655Z,13.3
2022-10-12T21:34:51.401Z,13.5
2022-10-12T21:40:03.761Z,13.5
2022-10-12T21:45:19.887Z,13.5
2022-10-12T21:50:30.254Z,12.9
2022-10-12T21:55:42.695Z,13
2022-10-12T22:06:14.644Z,13.3
2022-10-12T22:27:30.553Z,13.4
2022-10-12T22:38:08.515Z,13.4
2022-10-12T22:48:42.203Z,12.8
2022-10-12T22:53:55.350Z,12.7
2022-10-12T22:59:13.096Z,12.7
2022-10-12T23:04:25.540Z,12.2
2022-10-12T23:09:37.248Z,12.2
2022-10-12T23:14:49.933Z,12.3
2022-10-12T23:25:21.766Z,12.9
2022-10-12T23:30:34.876Z,13.1
2022-10-12T23:35:46.798Z,13.1
2022-10-12T23:46:18.711Z,12.7
2022-10-12T23:51:30.345Z,12.4
2022-10-12T23:56:43.194Z,12.4
